Time;durP1;ratioP1;P1;durP2;ratioP2;P2;SDS_P1;SDS_P2;PMS_P1;PMS_P2;Temp;Humidity;BMP_temperature;BMP_pressure;BME280_temperature;BME280_humidity;BME280_pressure;Samples;Min_cycle;Max_cycle;Signal;HPM_P1;HPM_P2
2021/04/30 00:02:19;;;;;;;12.82;11.10;;;;;;;16.03;60.33;101606.00;1716295;83;21302;-52
2021/04/30 00:04:47;;;;;;;13.85;11.22;;;;;;;16.03;60.18;101604.68;1707040;83;21255;-50
2021/04/30 00:07:15;;;;;;;12.20;10.90;;;;;;;16.04;60.07;101603.79;1705877;83;21269;-50
2021/04/30 00:09:44;;;;;;;12.88;11.57;;;;;;;16.04;60.02;101601.16;1705604;83;21592;-47
2021/04/30 00:12:12;;;;;;;13.80;12.05;;;;;;;16.05;59.91;101601.55;1697672;83;21155;-50
2021/04/30 00:14:40;;;;;;;14.28;12.47;;;;;;;16.07;59.91;101604.99;1703364;83;21124;-52
2021/04/30 00:17:09;;;;;;;13.62;11.40;;;;;;;16.07;59.87;101611.55;1716707;82;21126;-47
2021/04/30 00:19:37;;;;;;;13.60;11.05;;;;;;;16.07;59.80;101601.53;1733082;82;21172;-51
2021/04/30 00:22:05;;;;;;;12.47;11.18;;;;;;;16.07;59.87;101601.05;1733096;82;21121;-52
2021/04/30 00:24:36;;;;;;;14.45;13.03;;;;;;;16.07;59.90;101592.34;1736708;82;21584;-47
2021/04/30 00:27:05;;;;;;;14.25;12.95;;;;;;;16.06;59.83;101587.54;1736899;82;21159;-47
2021/04/30 00:29:34;;;;;;;13.83;12.53;;;;;;;16.06;59.62;101588.85;1733403;82;21157;-47
2021/04/30 00:32:03;;;;;;;12.98;11.73;;;;;;;16.05;59.39;101596.78;1733265;82;21581;-50
2021/04/30 00:34:33;;;;;;;12.78;11.43;;;;;;;16.03;59.24;101595.97;1732198;82;21145;-50
2021/04/30 00:37:01;;;;;;;14.35;12.03;;;;;;;15.99;59.10;101599.13;1729053;82;21132;-49
2021/04/30 00:39:30;;;;;;;13.72;12.15;;;;;;;15.96;59.12;101595.30;1735531;82;21259;-49
2021/04/30 00:41:58;;;;;;;14.35;12.85;;;;;;;15.95;59.17;101591.41;1734914;82;21216;-50
2021/04/30 00:44:27;;;;;;;12.55;11.35;;;;;;;15.96;59.12;101590.05;1731552;82;21121;-50
2021/04/30 00:46:56;;;;;;;12.85;11.53;;;;;;;15.96;59.12;101587.42;1735569;82;21298;-47
2021/04/30 00:49:24;;;;;;;12.18;10.85;;;;;;;15.95;59.15;101590.94;1735479;82;21357;-48
2021/04/30 00:51:52;;;;;;;16.42;13.13;;;;;;;15.94;59.03;101582.67;1733042;82;21315;-50
2021/04/30 00:54:21;;;;;;;14.05;12.65;;;;;;;15.92;58.81;101585.80;1732912;82;21290;-48
2021/04/30 00:56:49;;;;;;;16.10;14.53;;;;;;;15.90;58.72;101589.36;1732502;82;21574;-47
2021/04/30 00:59:17;;;;;;;15.53;13.93;;;;;;;15.86;58.61;101582.05;1724651;82;21161;-50
2021/04/30 01:01:46;;;;;;;13.70;12.30;;;;;;;15.84;58.54;101579.92;1735608;82;21168;-50
2021/04/30 01:04:14;;;;;;;17.25;13.65;;;;;;;15.80;58.49;101578.74;1733670;82;21608;-47
2021/04/30 01:06:44;;;;;;;17.60;15.90;;;;;;;15.75;58.45;101574.94;1732825;81;21141;-47
2021/04/30 01:09:13;;;;;;;17.82;15.93;;;;;;;15.73;58.39;101579.37;1732651;81;21561;-49
2021/04/30 01:11:41;;;;;;;17.05;15.25;;;;;;;15.68;58.35;101568.17;1727811;81;21291;-47
2021/04/30 01:14:09;;;;;;;16.70;14.18;;;;;;;15.65;58.32;101576.13;1733028;82;21117;-47
2021/04/30 01:16:36;;;;;;;14.80;13.25;;;;;;;15.62;58.29;101580.61;1732953;82;21632;-50
2021/04/30 01:19:04;;;;;;;15.40;13.80;;;;;;;15.57;58.43;101575.48;1730543;82;21314;-47
2021/04/30 01:21:32;;;;;;;16.97;14.98;;;;;;;15.53;58.53;101575.17;1729913;82;21330;-47
2021/04/30 01:24:01;;;;;;;16.57;14.80;;;;;;;15.49;58.67;101574.86;1734933;82;21181;-50
2021/04/30 01:26:29;;;;;;;16.77;14.20;;;;;;;15.47;58.51;101567.48;1743306;82;21584;-50
2021/04/30 01:28:57;;;;;;;18.60;13.50;;;;;;;15.44;58.35;101563.62;1729973;82;21165;-49
2021/04/30 01:31:25;;;;;;;15.30;12.82;;;;;;;15.44;58.14;101554.44;1730136;82;21577;-51
2021/04/30 01:33:55;;;;;;;15.25;13.32;;;;;;;15.42;57.98;101550.56;1731947;82;21188;-49
2021/04/30 01:36:23;;;;;;;14.28;12.85;;;;;;;15.40;58.11;101546.22;1732946;82;21145;-51
2021/04/30 01:38:53;;;;;;;15.10;13.50;;;;;;;15.39;58.22;101549.29;1738047;82;21149;-51
2021/04/30 01:41:22;;;;;;;13.98;12.13;;;;;;;15.38;58.18;101548.03;1730741;82;21125;-48
2021/04/30 01:43:50;;;;;;;13.05;11.57;;;;;;;15.37;58.25;101551.58;1729887;82;21172;-51
2021/04/30 01:46:18;;;;;;;13.48;12.07;;;;;;;15.35;58.43;101553.38;1735490;82;21164;-50
2021/04/30 01:48:46;;;;;;;14.15;12.65;;;;;;;15.33;58.57;101547.33;1733064;82;21155;-50
2021/04/30 01:51:14;;;;;;;13.72;12.20;;;;;;;15.31;58.56;101542.09;1736239;81;21303;-47
2021/04/30 01:53:43;;;;;;;14.13;12.65;;;;;;;15.32;58.39;101544.28;1739177;82;21183;-48
2021/04/30 01:56:12;;;;;;;13.80;12.37;;;;;;;15.27;58.48;101541.78;1741882;82;21287;-50
2021/04/30 01:58:41;;;;;;;12.35;11.15;;;;;;;15.25;58.42;101537.51;1744885;82;21184;-47
2021/04/30 02:01:10;;;;;;;11.30;10.10;;;;;;;15.24;58.27;101539.70;1738437;82;21287;-48
2021/04/30 02:03:38;;;;;;;13.85;10.20;;;;;;;15.22;58.33;101540.20;1738599;82;21173;-48
2021/04/30 02:06:05;;;;;;;14.93;10.78;;;;;;;15.19;58.58;101532.41;1736202;82;21156;-46
2021/04/30 02:08:34;;;;;;;12.43;10.93;;;;;;;15.19;58.72;101525.85;1735605;82;21525;-51
2021/04/30 02:11:05;;;;;;;12.90;10.95;;;;;;;15.18;58.57;101535.95;1736067;82;21165;-46
2021/04/30 02:13:33;;;;;;;13.85;10.63;;;;;;;15.15;58.75;101534.71;1737311;82;21160;-45
2021/04/30 02:16:01;;;;;;;10.50;9.45;;;;;;;15.12;58.60;101529.57;1732252;82;21314;-49
2021/04/30 02:18:29;;;;;;;10.98;9.85;;;;;;;15.08;58.88;101526.19;1738523;82;21290;-51
2021/04/30 02:20:57;;;;;;;10.40;9.30;;;;;;;15.07;59.21;101534.06;1738642;82;21191;-48
2021/04/30 02:23:25;;;;;;;9.83;9.03;;;;;;;15.05;59.73;101525.38;1736078;82;21608;-46
2021/04/30 02:25:52;;;;;;;11.12;9.83;;;;;;;15.06;60.02;101522.75;1740580;82;21282;-45
2021/04/30 02:28:21;;;;;;;9.20;8.38;;;;;;;15.09;60.24;101523.09;1735617;82;21161;-47
2021/04/30 02:30:49;;;;;;;8.95;8.00;;;;;;;15.11;60.50;101527.83;1736381;82;21148;-46
2021/04/30 02:33:17;;;;;;;9.30;8.40;;;;;;;15.13;60.69;101534.76;1739261;82;21576;-50
2021/04/30 02:35:48;;;;;;;9.15;8.18;;;;;;;15.16;60.86;101526.83;1739140;82;21204;-50
2021/04/30 02:38:17;;;;;;;10.18;8.38;;;;;;;15.21;60.79;101531.91;1733553;82;21137;-47
2021/04/30 02:40:48;;;;;;;9.13;8.23;;;;;;;15.22;60.80;101528.41;1738469;82;21164;-46
2021/04/30 02:43:18;;;;;;;9.27;8.43;;;;;;;15.26;60.49;101530.03;1738953;82;21145;-48
2021/04/30 02:45:51;;;;;;;9.60;8.70;;;;;;;15.26;60.35;101530.03;1738484;82;21148;-49
2021/04/30 02:48:23;;;;;;;10.10;9.10;;;;;;;15.27;60.19;101527.84;1731278;82;21311;-50
2021/04/30 02:50:46;;;;;;;10.30;8.53;;;;;;;15.29;60.11;101536.52;1733067;82;21118;-50
2021/04/30 02:53:14;;;;;;;9.58;8.58;;;;;;;15.29;59.97;101535.20;1726958;82;21149;-49
2021/04/30 02:55:43;;;;;;;9.08;7.58;;;;;;;15.31;59.91;101536.02;1724458;82;21125;-47
2021/04/30 02:58:11;;;;;;;10.13;8.13;;;;;;;15.31;59.96;101533.39;1726496;82;21149;-49
2021/04/30 03:00:39;;;;;;;9.98;8.48;;;;;;;15.33;60.03;101531.59;1725732;82;21193;-46
2021/04/30 03:03:07;;;;;;;9.88;8.88;;;;;;;15.34;59.93;101528.05;1722067;82;21173;-48
2021/04/30 03:05:35;;;;;;;10.63;9.18;;;;;;;15.36;59.78;101536.73;1715510;82;21585;-50
2021/04/30 03:08:04;;;;;;;10.28;8.68;;;;;;;15.36;59.64;101537.59;1723722;82;21137;-46
2021/04/30 03:10:32;;;;;;;8.95;8.13;;;;;;;15.37;59.62;101535.84;1725357;82;21130;-48
2021/04/30 03:13:00;;;;;;;9.33;8.30;;;;;;;15.38;59.72;101538.86;1724915;82;21283;-47
2021/04/30 03:15:28;;;;;;;9.00;8.10;;;;;;;15.39;59.80;101541.90;1728623;82;21166;-48
2021/04/30 03:17:56;;;;;;;9.90;8.68;;;;;;;15.42;59.83;101543.10;1722126;82;21557;-48
2021/04/30 03:20:24;;;;;;;10.28;8.00;;;;;;;15.46;59.77;101535.59;1725059;82;21118;-49
2021/04/30 03:22:52;;;;;;;11.50;8.48;;;;;;;15.52;59.58;101538.50;1724219;82;21137;-48
2021/04/30 03:25:20;;;;;;;10.00;8.68;;;;;;;15.60;59.80;101546.52;1728765;82;21287;-46
2021/04/30 03:27:48;;;;;;;9.63;8.68;;;;;;;15.72;59.82;101547.50;1725182;82;21169;-46
2021/04/30 03:30:18;;;;;;;9.70;8.70;;;;;;;15.84;59.43;101548.43;1725040;82;21121;-47
2021/04/30 03:32:46;;;;;;;10.38;8.75;;;;;;;15.92;59.00;101552.98;1724036;82;21426;-49
2021/04/30 03:35:18;;;;;;;12.65;7.90;;;;;;;16.01;58.84;101552.68;1722114;82;21161;-48
2021/04/30 03:37:47;;;;;;;9.00;8.03;;;;;;;16.10;58.49;101551.09;1721742;82;21212;-49
2021/04/30 03:40:15;;;;;;;8.98;8.08;;;;;;;16.16;58.35;101548.71;1722241;82;21141;-48
2021/04/30 03:42:43;;;;;;;10.13;8.05;;;;;;;16.19;58.34;101544.24;1731793;82;21141;-49
2021/04/30 03:45:13;;;;;;;9.58;8.28;;;;;;;16.22;58.36;101541.50;1723280;82;21181;-49
2021/04/30 03:47:40;;;;;;;9.30;8.33;;;;;;;16.26;58.39;101544.43;1726850;82;21149;-46
2021/04/30 03:50:10;;;;;;;7.97;7.22;;;;;;;16.26;58.50;101539.63;1727477;82;21149;-45
2021/04/30 03:52:38;;;;;;;11.10;8.23;;;;;;;16.25;58.56;101538.80;1740690;82;21207;-46
2021/04/30 03:55:08;;;;;;;9.90;8.90;;;;;;;16.26;58.66;101532.61;1740014;82;21192;-49
2021/04/30 03:57:36;;;;;;;9.75;8.78;;;;;;;16.27;58.71;101531.72;1738003;82;21140;-49
2021/04/30 04:00:07;;;;;;;10.03;8.93;;;;;;;16.28;58.79;101534.73;1735649;82;21585;-46
2021/04/30 04:02:42;;;;;;;9.33;7.92;;;;;;;16.28;58.91;101526.86;1738333;82;21196;-49
2021/04/30 04:05:11;;;;;;;9.00;7.85;;;;;;;16.26;59.06;101541.80;1739134;82;21196;-51
2021/04/30 04:07:40;;;;;;;10.80;8.68;;;;;;;16.25;59.34;101543.17;1738632;82;21172;-45
2021/04/30 04:10:10;;;;;;;9.50;8.55;;;;;;;16.25;59.54;101544.05;1738778;82;21148;-47
2021/04/30 04:12:40;;;;;;;7.45;6.75;;;;;;;16.28;59.54;101546.55;1735535;82;21149;-50
2021/04/30 04:15:09;;;;;;;12.35;7.70;;;;;;;16.28;59.45;101549.18;1745233;82;21141;-46
2021/04/30 04:17:38;;;;;;;8.88;7.90;;;;;;;16.30;59.50;101551.75;1737301;82;21608;-49
2021/04/30 04:20:10;;;;;;;8.95;8.05;;;;;;;16.33;59.48;101550.80;1739796;82;21128;-48
2021/04/30 04:22:38;;;;;;;10.40;8.90;;;;;;;16.35;59.50;101548.53;1745077;82;21180;-51
2021/04/30 04:25:07;;;;;;;9.63;8.68;;;;;;;16.37;59.43;101545.84;1738912;82;21133;-47
2021/04/30 04:27:35;;;;;;;9.75;8.68;;;;;;;16.40;59.41;101551.02;1737958;82;21117;-46
2021/04/30 04:30:07;;;;;;;9.43;7.95;;;;;;;16.40;59.46;101543.13;1735472;82;21155;-45
2021/04/30 04:32:34;;;;;;;9.70;8.70;;;;;;;16.41;59.49;101543.52;1736037;82;21152;-49
2021/04/30 04:35:02;;;;;;;8.93;8.13;;;;;;;16.43;59.58;101541.70;1736837;82;21149;-50
2021/04/30 04:37:30;;;;;;;10.35;9.03;;;;;;;16.44;59.64;101546.06;1738628;82;21133;-49
2021/04/30 04:39:58;;;;;;;10.08;9.00;;;;;;;16.48;59.67;101543.73;1743714;82;21125;-50
2021/04/30 04:42:26;;;;;;;8.40;7.60;;;;;;;16.50;59.69;101543.26;1741985;82;21164;-48
2021/04/30 04:44:54;;;;;;;9.40;8.40;;;;;;;16.52;59.70;101545.37;1725346;82;21164;-47
2021/04/30 04:47:22;;;;;;;8.73;7.92;;;;;;;16.54;59.75;101550.12;1740190;82;21168;-48
2021/04/30 04:49:51;;;;;;;10.25;8.00;;;;;;;16.57;59.77;101544.78;1741096;82;21168;-47
2021/04/30 04:52:19;;;;;;;9.40;8.00;;;;;;;16.63;59.70;101546.72;1740048;81;21156;-45
2021/04/30 04:54:47;;;;;;;9.45;8.30;;;;;;;16.70;59.68;101548.69;1738120;82;21109;-47
2021/04/30 04:57:16;;;;;;;8.85;8.05;;;;;;;16.76;59.43;101547.16;1738454;82;21285;-48
2021/04/30 04:59:45;;;;;;;10.32;8.03;;;;;;;16.82;59.02;101552.20;1737913;82;21149;-48
2021/04/30 05:02:13;;;;;;;9.68;7.67;;;;;;;16.86;58.76;101549.87;1738354;82;21621;-48
2021/04/30 05:04:43;;;;;;;9.80;8.48;;;;;;;16.93;58.66;101554.02;1738471;82;21124;-47
2021/04/30 05:07:11;;;;;;;11.78;8.60;;;;;;;16.96;58.46;101557.38;1690266;82;21290;-49
2021/04/30 05:09:39;;;;;;;9.85;8.13;;;;;;;17.04;58.32;101545.30;1741489;82;21552;-45
2021/04/30 05:12:08;;;;;;;10.05;8.70;;;;;;;17.09;58.02;101544.22;1741047;82;21120;-48
2021/04/30 05:14:36;;;;;;;10.30;7.60;;;;;;;17.15;57.86;101543.13;1747846;82;21160;-48
2021/04/30 05:17:06;;;;;;;7.67;6.97;;;;;;;17.20;57.74;101537.25;1742275;82;21594;-50
2021/04/30 05:19:35;;;;;;;8.33;7.53;;;;;;;17.24;57.65;101534.91;1727339;82;21187;-45
2021/04/30 05:22:11;;;;;;;12.00;7.33;;;;;;;17.27;57.56;101540.52;1738353;82;21172;-47
2021/04/30 05:24:37;;;;;;;10.30;8.58;;;;;;;17.31;57.56;101542.95;1742354;82;21177;-47
2021/04/30 05:27:07;;;;;;;10.28;7.65;;;;;;;17.35;57.55;101543.24;1740491;82;21157;-47
2021/04/30 05:29:34;;;;;;;10.70;7.85;;;;;;;17.42;57.46;101544.75;1737005;82;21177;-50
2021/04/30 05:32:02;;;;;;;8.25;7.20;;;;;;;17.50;57.62;101537.45;1735680;82;21294;-47
2021/04/30 05:34:32;;;;;;;8.68;7.08;;;;;;;17.74;57.85;101547.03;1735653;81;21141;-48
2021/04/30 05:37:00;;;;;;;9.88;7.03;;;;;;;18.12;56.88;101557.84;1738253;82;21580;-46
2021/04/30 05:39:27;;;;;;;8.80;7.97;;;;;;;18.53;55.49;101571.53;1738251;82;21121;-46
2021/04/30 05:41:55;;;;;;;9.05;7.25;;;;;;;18.90;54.23;101574.82;1738595;82;21136;-48
2021/04/30 05:44:23;;;;;;;7.47;6.47;;;;;;;19.19;53.25;101577.88;1737961;82;21149;-45
2021/04/30 05:46:51;;;;;;;9.10;7.78;;;;;;;19.40;52.40;101573.00;1738310;82;21153;-48
2021/04/30 05:49:20;;;;;;;10.00;8.05;;;;;;;19.58;51.72;101577.06;1740641;82;21601;-45
2021/04/30 05:51:47;;;;;;;9.73;8.45;;;;;;;19.76;51.42;101576.20;1741243;82;21141;-45
2021/04/30 05:54:15;;;;;;;8.15;7.33;;;;;;;19.93;50.96;101572.28;1740709;82;21215;-47
2021/04/30 05:56:43;;;;;;;9.98;7.47;;;;;;;20.15;50.53;101579.61;1738183;82;21132;-51
2021/04/30 05:59:11;;;;;;;8.38;6.72;;;;;;;20.39;49.81;101582.40;1740685;82;21144;-47
2021/04/30 06:01:39;;;;;;;10.03;7.25;;;;;;;20.64;49.23;101580.25;1740485;82;21155;-49
2021/04/30 06:04:07;;;;;;;7.95;7.22;;;;;;;20.92;48.67;101584.98;1741264;82;21203;-48
2021/04/30 06:06:35;;;;;;;12.05;8.03;;;;;;;21.16;48.13;101578.94;1741205;82;21180;-50
2021/04/30 06:09:04;;;;;;;9.03;7.33;;;;;;;21.36;47.47;101580.05;1738866;82;21153;-45
2021/04/30 06:11:32;;;;;;;8.73;7.20;;;;;;;21.48;47.06;101582.04;1738088;82;21184;-47
2021/04/30 06:13:59;;;;;;;8.23;7.40;;;;;;;21.54;46.90;101581.70;1738178;82;21585;-45
2021/04/30 06:16:28;;;;;;;8.85;7.28;;;;;;;21.60;46.71;101587.99;1730717;82;21168;-48
2021/04/30 06:18:57;;;;;;;8.48;7.42;;;;;;;21.68;46.59;101588.43;1741258;82;21133;-49
2021/04/30 06:21:25;;;;;;;12.95;7.33;;;;;;;21.74;46.21;101585.48;1739467;82;21537;-48
2021/04/30 06:23:53;;;;;;;8.35;7.30;;;;;;;21.79;46.05;101583.41;1737893;82;21291;-45
2021/04/30 06:26:21;;;;;;;7.85;7.12;;;;;;;21.77;46.06;101586.61;1738211;82;21139;-48
2021/04/30 06:28:49;;;;;;;8.45;7.33;;;;;;;21.72;46.25;101590.00;1738160;82;21160;-45
2021/04/30 06:31:17;;;;;;;7.65;6.90;;;;;;;21.67;46.37;101590.71;1738172;82;21294;-46
2021/04/30 06:33:45;;;;;;;10.30;7.00;;;;;;;21.64;46.46;101592.19;1739294;82;21148;-46
2021/04/30 06:36:13;;;;;;;9.20;7.95;;;;;;;21.63;46.76;101590.49;1741288;82;21589;-45
2021/04/30 06:38:41;;;;;;;8.25;7.00;;;;;;;21.68;46.71;101589.75;1741438;82;21612;-49
2021/04/30 06:41:09;;;;;;;7.67;6.87;;;;;;;21.79;46.59;101582.09;1739096;82;21186;-46
2021/04/30 06:43:37;;;;;;;8.40;7.17;;;;;;;21.93;46.14;101576.91;1739457;82;21164;-48
2021/04/30 06:46:05;;;;;;;10.10;7.47;;;;;;;22.08;46.08;101577.38;1740429;82;21164;-49
2021/04/30 06:48:35;;;;;;;8.13;7.30;;;;;;;22.21;45.91;101569.13;1738128;82;21121;-47
2021/04/30 06:51:04;;;;;;;7.37;6.45;;;;;;;22.34;45.82;101568.80;1741221;82;21161;-45
2021/04/30 06:53:33;;;;;;;9.48;6.85;;;;;;;22.48;45.75;101563.54;1740965;82;21160;-49
2021/04/30 06:56:03;;;;;;;7.65;6.67;;;;;;;22.68;45.23;101561.55;1738408;82;21185;-47
2021/04/30 06:58:31;;;;;;;10.93;6.97;;;;;;;22.88;44.59;101563.88;1738079;82;21303;-48
2021/04/30 07:00:59;;;;;;;8.93;6.28;;;;;;;23.00;44.07;101556.03;1738110;82;21136;-45
2021/04/30 07:03:27;;;;;;;8.60;6.70;;;;;;;23.15;43.89;101556.43;1738281;82;21183;-49
2021/04/30 07:05:57;;;;;;;7.35;6.65;;;;;;;23.34;43.77;101564.16;1737828;81;21141;-49
2021/04/30 07:08:24;;;;;;;7.53;6.75;;;;;;;23.53;43.38;101559.88;1739545;82;21609;-45
2021/04/30 07:10:52;;;;;;;6.83;6.20;;;;;;;23.77;42.83;101556.52;1741268;82;21125;-45
2021/04/30 07:13:20;;;;;;;7.70;6.33;;;;;;;24.00;42.47;101563.88;1737225;82;21156;-47
2021/04/30 07:15:48;;;;;;;6.80;6.10;;;;;;;24.24;41.87;101567.62;1729938;82;21164;-46
2021/04/30 07:18:17;;;;;;;7.42;5.85;;;;;;;24.47;41.64;101567.91;1738695;82;21584;-48
2021/04/30 07:20:45;;;;;;;7.15;5.95;;;;;;;24.69;41.19;101567.69;1741251;82;21314;-46
2021/04/30 07:23:13;;;;;;;8.90;6.37;;;;;;;24.87;40.67;101571.80;1739903;82;21141;-46
2021/04/30 07:25:41;;;;;;;7.40;6.60;;;;;;;25.01;40.20;101572.20;1739048;82;21573;-49
2021/04/30 07:28:10;;;;;;;7.85;6.22;;;;;;;25.10;40.06;101572.87;1743766;82;21160;-49
2021/04/30 07:30:40;;;;;;;6.72;6.00;;;;;;;25.12;39.80;101569.66;1736925;82;21199;-46
2021/04/30 07:33:08;;;;;;;7.20;6.28;;;;;;;25.08;39.77;101566.80;1735847;82;21695;-47
2021/04/30 07:35:41;;;;;;;7.97;6.37;;;;;;;24.92;39.93;101573.67;1735618;82;21195;-48
2021/04/30 07:38:09;;;;;;;6.97;6.28;;;;;;;24.70;40.19;101575.20;1737475;82;21168;-45
2021/04/30 07:40:39;;;;;;;10.08;6.75;;;;;;;24.41;40.50;101574.50;1738523;82;21124;-49
2021/04/30 07:43:08;;;;;;;6.67;5.95;;;;;;;24.10;41.03;101574.33;1751177;82;21168;-48
2021/04/30 07:45:36;;;;;;;7.72;6.67;;;;;;;23.80;41.69;101572.25;1735688;82;21188;-48
2021/04/30 07:48:07;;;;;;;8.43;6.67;;;;;;;23.50;42.09;101574.20;1735654;82;21200;-50
2021/04/30 07:50:37;;;;;;;7.47;6.65;;;;;;;23.23;42.85;101572.74;1748879;82;21152;-49
2021/04/30 07:53:06;;;;;;;8.03;6.22;;;;;;;22.97;43.30;101580.58;1726331;82;21161;-50
2021/04/30 07:55:34;;;;;;;11.65;7.00;;;;;;;22.72;43.74;101571.05;1724314;82;21189;-48
2021/04/30 07:58:02;;;;;;;8.80;6.72;;;;;;;22.48;44.43;101567.52;1723147;82;21157;-49
2021/04/30 08:00:30;;;;;;;7.72;6.92;;;;;;;22.29;44.75;101567.36;1723416;82;21149;-50
2021/04/30 08:02:58;;;;;;;9.08;7.00;;;;;;;22.10;45.24;101567.55;1721966;82;21149;-45
2021/04/30 08:05:27;;;;;;;10.80;6.47;;;;;;;21.90;45.82;101575.77;1721893;82;21299;-49
2021/04/30 08:07:58;;;;;;;8.68;7.78;;;;;;;21.74;46.24;101566.44;1722859;82;21298;-45
2021/04/30 08:10:26;;;;;;;7.78;6.97;;;;;;;21.58;46.84;101566.03;1723993;82;21153;-45
2021/04/30 08:12:54;;;;;;;8.63;6.25;;;;;;;21.43;47.30;101564.23;1724546;82;21295;-49
2021/04/30 08:15:22;;;;;;;7.28;6.50;;;;;;;21.30;47.68;101564.50;1719146;81;21314;-48
2021/04/30 08:17:50;;;;;;;7.08;6.15;;;;;;;21.23;48.06;101569.72;1727422;82;21129;-46
2021/04/30 08:20:18;;;;;;;7.42;6.58;;;;;;;21.15;48.42;101576.75;1723441;82;21133;-48
2021/04/30 08:22:45;;;;;;;7.75;6.95;;;;;;;21.11;48.62;101578.30;1719839;82;21150;-45
2021/04/30 08:25:13;;;;;;;7.03;6.33;;;;;;;21.06;48.66;101574.11;1724363;82;21290;-48
2021/04/30 08:27:42;;;;;;;11.22;6.92;;;;;;;21.01;48.77;101573.48;1719835;82;21156;-46
2021/04/30 08:30:12;;;;;;;8.15;6.50;;;;;;;20.94;49.10;101566.78;1723957;82;21695;-45
2021/04/30 08:32:40;;;;;;;7.58;6.37;;;;;;;20.88;49.48;101571.06;1724950;82;21593;-49
2021/04/30 08:35:10;;;;;;;7.50;5.95;;;;;;;20.86;49.40;101569.42;1724853;81;21299;-49
2021/04/30 08:37:37;;;;;;;8.10;6.15;;;;;;;20.82;49.52;101568.73;1724346;82;21153;-49
2021/04/30 08:40:06;;;;;;;8.58;7.55;;;;;;;20.79;49.67;101568.87;1724399;82;21156;-45
2021/04/30 08:42:34;;;;;;;6.72;5.83;;;;;;;20.77;49.77;101570.75;1726293;82;21157;-48
2021/04/30 08:45:06;;;;;;;9.33;6.72;;;;;;;20.74;49.96;101569.59;1726672;82;21165;-51
2021/04/30 08:47:36;;;;;;;7.67;6.83;;;;;;;20.73;50.06;101569.19;1724928;82;21165;-50
2021/04/30 08:50:05;;;;;;;6.87;6.20;;;;;;;20.71;50.28;101576.35;1726012;82;21177;-50
2021/04/30 08:52:33;;;;;;;6.80;6.10;;;;;;;20.70;50.37;101573.33;1729922;82;21168;-47
2021/04/30 08:55:06;;;;;;;6.42;5.72;;;;;;;20.71;50.29;101568.91;1736404;82;21311;-45
2021/04/30 08:57:31;;;;;;;8.38;5.78;;;;;;;20.69;50.31;101574.25;1741883;82;21561;-45
2021/04/30 09:00:00;;;;;;;6.35;5.28;;;;;;;20.69;50.48;101572.09;1740527;82;21278;-47
2021/04/30 09:02:30;;;;;;;6.70;5.70;;;;;;;20.69;50.02;101572.93;1724904;82;21160;-49
2021/04/30 09:04:58;;;;;;;7.17;5.87;;;;;;;20.67;50.00;101572.15;1737137;82;21600;-47
2021/04/30 09:07:28;;;;;;;11.73;5.97;;;;;;;20.65;50.24;101564.77;1739719;82;21125;-49
2021/04/30 09:10:11;;;;;;;7.60;5.15;;;;;;;20.66;50.24;101563.84;1735643;82;21565;-50
2021/04/30 09:12:40;;;;;;;6.58;4.62;;;;;;;20.68;49.94;101559.33;1684769;84;21167;-45
2021/04/30 09:15:20;;;;;;;4.40;4.00;;;;;;;20.70;49.74;101547.34;1699706;84;21202;-48
2021/04/30 09:17:53;;;;;;;4.78;4.30;;;;;;;20.76;49.63;101533.34;1809966;79;22852;-50
2021/04/30 09:20:21;;;;;;;5.33;4.30;;;;;;;20.75;49.57;101550.12;1777444;80;21295;-45
2021/04/30 09:22:49;;;;;;;6.12;3.92;;;;;;;20.77;49.64;101548.27;1775804;80;21144;-50
2021/04/30 09:25:17;;;;;;;5.87;4.78;;;;;;;20.79;49.82;101548.20;1775826;80;21211;-51
2021/04/30 09:27:47;;;;;;;5.67;4.20;;;;;;;20.83;49.93;101555.91;1781925;80;21293;-47
2021/04/30 09:30:30;;;;;;;5.40;4.75;;;;;;;20.88;49.80;101553.87;1770526;80;21225;-47
2021/04/30 09:33:15;;;;;;;6.08;4.42;;;;;;;20.94;49.50;101555.33;1770557;80;21624;-50
2021/04/30 09:35:51;;;;;;;9.45;5.40;;;;;;;20.97;49.26;101550.76;1779328;80;21180;-47
2021/04/30 09:38:31;;;;;;;4.97;4.58;;;;;;;21.03;49.19;101561.05;1771604;79;22915;-48
2021/04/30 09:41:11;;;;;;;9.08;5.03;;;;;;;20.99;49.31;101562.12;1738133;82;21211;-48
2021/04/30 09:43:44;;;;;;;5.85;4.87;;;;;;;21.00;49.40;101555.87;1738222;82;21173;-48
2021/04/30 09:46:34;;;;;;;9.73;5.40;;;;;;;21.01;49.35;101552.31;1728148;82;21176;-47
2021/04/30 09:49:07;;;;;;;6.67;5.00;;;;;;;21.02;49.32;101557.14;1738109;82;21176;-45
2021/04/30 09:51:53;;;;;;;7.33;5.15;;;;;;;21.00;49.39;101557.20;1738299;82;21159;-47
2021/04/30 09:54:25;;;;;;;5.28;4.65;;;;;;;21.01;49.54;101550.98;1738182;82;21244;-48
2021/04/30 09:57:26;;;;;;;6.12;4.78;;;;;;;21.10;49.60;101547.50;1810141;79;22840;-45
2021/04/30 10:00:05;;;;;;;8.63;4.87;;;;;;;21.10;49.67;101547.50;1714199;82;21184;-49
2021/04/30 10:02:40;;;;;;;8.10;4.80;;;;;;;21.18;49.44;101540.01;1755858;81;21164;-46
2021/04/30 10:05:14;;;;;;;5.42;4.67;;;;;;;21.23;49.26;101540.59;1760536;81;21161;-50
2021/04/30 10:07:45;;;;;;;6.83;4.58;;;;;;;21.24;49.07;101543.65;1720870;82;21189;-49
2021/04/30 10:10:19;;;;;;;6.42;4.70;;;;;;;21.24;49.06;101539.67;1755831;81;21165;-45
2021/04/30 10:13:00;;;;;;;7.50;5.15;;;;;;;21.29;49.03;101532.36;1807484;79;22913;-47
2021/04/30 10:15:28;;;;;;;4.30;3.90;;;;;;;21.25;49.13;101536.08;1768144;80;21171;-49
2021/04/30 10:17:57;;;;;;;7.03;4.37;;;;;;;21.26;49.11;101527.22;1789419;80;21195;-46
2021/04/30 10:20:25;;;;;;;8.30;4.50;;;;;;;21.30;49.01;101528.76;1783916;80;21354;-47
2021/04/30 10:22:57;;;;;;;6.95;5.03;;;;;;;21.34;49.23;101521.03;1772429;80;21573;-51
2021/04/30 10:25:26;;;;;;;7.50;5.60;;;;;;;21.37;49.08;101516.91;1779319;80;21568;-47
2021/04/30 10:27:54;;;;;;;10.40;6.17;;;;;;;21.38;49.08;101518.61;1737964;80;21163;-45
2021/04/30 10:30:39;;;;;;;8.63;6.12;;;;;;;21.36;49.08;101520.48;1791062;80;21600;-45
2021/04/30 10:33:21;;;;;;;7.25;6.30;;;;;;;21.34;49.27;101523.22;1785639;80;21160;-45
2021/04/30 10:36:21;;;;;;;6.97;6.03;;;;;;;21.33;49.31;101520.67;1724193;83;21242;-52
2021/04/30 10:38:53;;;;;;;9.43;6.37;;;;;;;21.31;49.28;101526.52;1719734;83;21338;-47
2021/04/30 10:41:38;;;;;;;7.55;5.95;;;;;;;21.24;49.30;101520.69;1717795;83;21201;-51
2021/04/30 10:44:16;;;;;;;7.87;6.10;;;;;;;21.19;49.56;101517.87;1719285;83;21173;-47
2021/04/30 10:46:45;;;;;;;7.15;4.72;;;;;;;21.18;49.97;101527.64;1718768;83;21225;-46
2021/04/30 10:49:21;;;;;;;6.47;5.47;;;;;;;21.21;49.82;101522.63;1724339;83;21139;-50
2021/04/30 10:55:08;;;;;;;7.15;5.12;;;;;;;21.28;49.61;101505.48;1771644;79;22780;-50
2021/04/30 10:57:48;;;;;;;6.60;5.33;;;;;;;21.24;49.58;101508.78;1741260;82;21125;-49
2021/04/30 11:00:18;;;;;;;8.28;4.97;;;;;;;21.20;49.60;101506.38;1733556;82;21192;-48
2021/04/30 11:02:46;;;;;;;7.08;5.67;;;;;;;21.17;49.62;101503.88;1734226;82;21192;-47
2021/04/30 11:05:17;;;;;;;10.05;5.28;;;;;;;21.11;49.87;101504.20;1736253;82;21176;-46
2021/04/30 11:07:52;;;;;;;7.03;5.17;;;;;;;21.10;49.99;101501.19;1771927;79;22938;-45
2021/04/30 11:10:32;;;;;;;7.65;4.83;;;;;;;21.02;50.06;101500.25;1738835;81;21151;-47
2021/04/30 11:13:16;;;;;;;6.62;4.72;;;;;;;21.01;50.05;101502.03;1740410;82;21157;-50
2021/04/30 11:15:51;;;;;;;9.88;5.22;;;;;;;21.03;50.10;101508.13;1744872;81;21588;-46
2021/04/30 11:18:23;;;;;;;6.35;4.80;;;;;;;21.08;49.99;101511.00;1741855;82;21125;-48
2021/04/30 11:21:12;;;;;;;7.65;5.30;;;;;;;21.12;49.85;101509.90;1736921;82;21582;-47
2021/04/30 11:23:44;;;;;;;5.50;5.00;;;;;;;21.15;49.84;101503.10;1736603;82;21205;-49
2021/04/30 11:26:17;;;;;;;8.18;5.37;;;;;;;21.19;49.71;101500.22;1740437;82;21183;-46
2021/04/30 11:29:00;;;;;;;5.47;4.90;;;;;;;21.24;49.64;101502.62;1741438;82;21129;-47
2021/04/30 11:31:32;;;;;;;5.75;4.30;;;;;;;21.25;49.67;101499.88;1741418;82;21152;-46
2021/04/30 11:34:15;;;;;;;9.25;4.45;;;;;;;21.26;49.54;101499.42;1691156;84;21603;-49
2021/04/30 11:36:51;;;;;;;7.12;4.87;;;;;;;21.27;49.63;101500.66;1690072;84;21159;-46
2021/04/30 11:39:22;;;;;;;9.80;5.45;;;;;;;21.28;49.52;101501.52;1689922;84;21167;-45